Date,TemperatureHighF,TemperatureAvgF,TemperatureLowF,DewpointHighF,DewpointAvgF,DewpointLowF,HumidityHigh,HumidityAvg,HumidityLow,PressureMaxIn,PressureMinIn,WindSpeedMaxMPH,WindSpeedAvgMPH,GustSpeedMaxMPH,PrecipitationSumIn
2013-3-1,40.3,30.3,27.3,39.0,17.8,10.2,95,62,48,29.56,28.85,6,4,7,0.00
2013-3-2,45.5,33.3,26.1,42.7,30.5,24.7,97,89,68,29.65,29.56,14,3,14,0.00
2013-3-3,34.0,28.3,24.6,28.9,21.3,16.2,92,75,62,30.00,29.65,15,7,15,0.00
2013-3-4,36.3,32.0,26.6,24.0,21.5,15.7,71,65,57,30.03,29.91,10,4,10,0.00
2013-3-5,44.4,31.2,20.5,25.9,20.0,14.2,82,64,46,29.91,29.56,7,2,7,0.04
2013-3-6,41.0,32.3,27.0,28.3,22.7,18.5,90,68,50,29.56,29.44,10,2,10,0.04
2013-3-7,43.7,35.4,27.9,32.6,26.6,19.2,88,72,39,29.44,29.09,23,5,23,0.00
2013-3-8,49.8,38.5,30.6,31.7,24.1,18.7,88,57,39,29.35,29.12,17,4,17,0.00
2013-3-9,42.1,36.3,32.5,35.1,28.1,24.2,92,73,51,29.74,29.35,9,2,9,0.00
2013-3-10,38.1,33.4,28.8,36.8,28.3,14.9,95,82,55,29.85,29.68,13,5,13,0.04
2013-3-11,43.0,36.3,25.9,41.6,26.2,10.4,96,70,41,29.91,29.83,9,2,9,0.04
2013-3-12,36.7,29.0,22.1,10.9,6.7,1.9,51,39,31,29.85,29.62,18,6,18,0.00
2013-3-13,34.0,25.8,15.4,6.3,1.8,-4.3,45,35,31,29.62,29.38,15,4,15,0.00
2013-3-14,26.1,18.9,14.2,12.9,8.5,-0.3,82,65,39,29.50,29.35,15,7,15,0.00
2013-3-15,37.6,23.9,12.6,11.3,5.6,0.3,64,47,30,29.47,29.32,14,4,14,0.00
2013-3-16,36.3,22.5,11.3,10.4,2.6,-4.8,53,42,32,29.74,29.44,10,3,10,0.00
2013-3-17,38.1,24.4,16.0,14.6,7.2,-0.7,76,48,35,29.74,29.65,12,2,12,0.00
2013-3-18,35.8,23.6,13.6,17.4,10.3,6.2,89,59,34,29.68,29.50,10,2,10,0.00
2013-3-19,19.2,16.0,12.6,11.6,5.2,-1.0,77,62,54,29.53,29.50,6,0,6,0.00
2013-3-21,33.8,25.0,12.9,8.7,5.9,-1.5,54,44,34,29.80,29.53,8,2,8,0.00
2013-3-22,37.6,27.4,21.2,29.6,19.2,5.8,88,72,44,29.71,29.47,9,2,9,0.00
2013-3-23,37.4,31.7,26.6,25.2,19.6,12.0,78,62,47,29.50,29.38,12,3,12,0.00
2013-3-24,28.9,24.6,20.3,27.2,17.3,6.4,93,74,47,29.47,29.20,10,3,10,0.00
2013-3-25,28.9,21.5,9.0,27.4,10.5,-8.1,94,65,41,29.32,29.03,13,4,13,0.00
2013-3-26,24.1,13.8,3.2,4.5,-2.8,-13.4,52,47,43,29.80,29.32,10,3,10,0.00
2013-3-27,25.0,13.7,3.2,9.9,-0.9,-10.5,77,52,42,29.85,29.77,10,4,10,0.00
2013-3-28,28.6,21.3,14.5,21.4,13.4,7.8,81,71,60,29.80,29.44,15,6,15,0.00
2013-3-29,46.6,35.3,28.6,29.8,24.1,17.9,85,64,44,29.59,29.38,13,4,13,0.04
2013-3-30,45.9,39.4,33.4,44.1,34.5,28.5,96,83,55,29.88,29.59,8,1,8,0.00
2013-3-31,49.3,42.0,32.7,47.3,38.6,26.9,97,89,56,29.88,29.74,9,1,9,0.04